createdAt,value
2018-03-22T00:01:06.158Z,1007.19
2018-03-22T00:02:16.175Z,1007.18
2018-03-22T00:03:25.941Z,1007.17
2018-03-22T00:04:35.694Z,1007.16
2018-03-22T00:05:45.452Z,1007.15
2018-03-22T00:06:54.952Z,1007.15
2018-03-22T00:08:04.716Z,1007.17
2018-03-22T00:09:14.724Z,1007.17
2018-03-22T00:10:24.750Z,1007.12
2018-03-22T00:11:34.505Z,1007.15
2018-03-22T00:12:44.279Z,1007.1
2018-03-22T00:13:54.082Z,1007.1
2018-03-22T00:15:04.143Z,1007.13
2018-03-22T00:16:13.953Z,1007.14
2018-03-22T00:17:23.754Z,1007.12
2018-03-22T00:18:33.578Z,1007.11
2018-03-22T00:19:43.128Z,1007.07
2018-03-22T00:20:53.263Z,1007.04
2018-03-22T00:22:03.327Z,1007.04
2018-03-22T00:23:13.124Z,1007.02
2018-03-22T00:24:23.191Z,1007.03
2018-03-22T00:25:32.732Z,1007.04
2018-03-22T00:26:42.589Z,1007.04
2018-03-22T00:27:52.652Z,1007.01
2018-03-22T00:29:02.726Z,1007
2018-03-22T00:30:12.806Z,1006.96
2018-03-22T00:31:22.877Z,1007.02
2018-03-22T00:32:32.948Z,1007.06
2018-03-22T00:33:42.764Z,1006.97
2018-03-22T00:34:52.832Z,1006.98
2018-03-22T00:36:02.764Z,1006.97
2018-03-22T00:37:12.829Z,1006.95
2018-03-22T00:38:22.663Z,1006.89
2018-03-22T00:39:32.192Z,1006.95
2018-03-22T00:40:41.731Z,1006.9
2018-03-22T00:41:51.798Z,1006.87
2018-03-22T00:43:01.863Z,1006.86
2018-03-22T00:44:11.753Z,1006.84
2018-03-22T00:45:21.814Z,1006.84
2018-03-22T00:46:31.867Z,1006.82
2018-03-22T00:47:41.927Z,1006.82
2018-03-22T00:48:51.730Z,1006.79
2018-03-22T00:50:01.537Z,1006.81
2018-03-22T00:51:11.323Z,1006.77
2018-03-22T00:52:20.851Z,1006.8
2018-03-22T00:53:30.378Z,1006.79
2018-03-22T00:54:40.163Z,1006.77
2018-03-22T00:55:49.730Z,1006.79
2018-03-22T00:56:59.546Z,1006.8
2018-03-22T00:58:09.353Z,1006.77
2018-03-22T00:59:19.143Z,1006.75
2018-03-22T01:00:28.926Z,1006.73
2018-03-22T01:01:38.713Z,1006.77
2018-03-22T01:02:48.494Z,1006.74
2018-03-22T01:03:58.293Z,1006.76
2018-03-22T01:05:08.345Z,1006.7
2018-03-22T01:06:18.129Z,1006.74
2018-03-22T01:07:27.708Z,1006.7
2018-03-22T01:08:37.770Z,1006.72
2018-03-22T01:09:47.849Z,1006.75
2018-03-22T01:10:57.897Z,1006.75
2018-03-22T01:12:07.681Z,1006.75
2018-03-22T01:13:17.731Z,1006.73
2018-03-22T01:14:27.536Z,1006.75
2018-03-22T01:15:37.594Z,1006.74
2018-03-22T01:16:47.121Z,1006.74
2018-03-22T01:17:56.662Z,1006.7
2018-03-22T01:19:05.970Z,1006.67
2018-03-22T01:20:16.031Z,1006.66
2018-03-22T01:21:26.086Z,1006.68
2018-03-22T01:22:35.605Z,1006.68
2018-03-22T01:23:45.395Z,1006.68
2018-03-22T01:24:55.458Z,1006.67
2018-03-22T01:26:05.511Z,1006.62
2018-03-22T01:27:15.570Z,1006.6
2018-03-22T01:28:25.624Z,1006.61
2018-03-22T01:29:34.616Z,1006.62
2018-03-22T01:30:44.410Z,1006.64
2018-03-22T01:31:54.220Z,1006.63
2018-03-22T01:33:04.278Z,1006.66
2018-03-22T01:34:13.810Z,1006.64
2018-03-22T01:35:23.604Z,1006.64
2018-03-22T01:36:33.721Z,1006.59
2018-03-22T01:37:43.259Z,1006.62
2018-03-22T01:38:53.077Z,1006.53
2018-03-22T01:40:03.136Z,1006.53
2018-03-22T01:41:13.200Z,1006.52
2018-03-22T01:42:23.315Z,1006.53
2018-03-22T01:43:33.371Z,1006.49
2018-03-22T01:44:42.904Z,1006.53
2018-03-22T01:45:52.430Z,1006.5
2018-03-22T01:47:02.494Z,1006.48
2018-03-22T01:48:12.028Z,1006.44
2018-03-22T01:49:22.074Z,1006.43
2018-03-22T01:50:31.636Z,1006.46
2018-03-22T01:51:41.433Z,1006.4
2018-03-22T01:52:51.495Z,1006.42
2018-03-22T01:54:01.653Z,1006.41
2018-03-22T01:55:11.705Z,1006.35
2018-03-22T01:56:21.771Z,1006.36
2018-03-22T01:57:31.820Z,1006.35
2018-03-22T01:58:41.639Z,1006.33
2018-03-22T01:59:50.956Z,1006.33
2018-03-22T02:01:01.008Z,1006.3
2018-03-22T02:02:10.811Z,1006.28
2018-03-22T02:03:20.082Z,1006.24
2018-03-22T02:04:30.140Z,1006.28
2018-03-22T02:05:39.463Z,1006.27
2018-03-22T02:06:48.459Z,1006.25
2018-03-22T02:07:58.512Z,1006.25
2018-03-22T02:09:08.039Z,1006.24
2018-03-22T02:10:18.097Z,1006.24
2018-03-22T02:11:27.658Z,1006.22
2018-03-22T02:12:37.702Z,1006.2
2018-03-22T02:13:47.780Z,1006.16
2018-03-22T02:14:57.854Z,1006.14
2018-03-22T02:16:07.650Z,1006.15
2018-03-22T02:17:17.755Z,1006.09
2018-03-22T02:18:27.554Z,1006.08
2018-03-22T02:19:37.099Z,1006.1
2018-03-22T02:20:47.153Z,1006.11
2018-03-22T02:21:57.213Z,1006.06
2018-03-22T02:23:06.752Z,1006.08
2018-03-22T02:24:16.812Z,1006.06
2018-03-22T02:25:26.875Z,1006.03
2018-03-22T02:26:36.397Z,1006.03
2018-03-22T02:27:46.443Z,1005.98
2018-03-22T02:28:56.503Z,1006.02
2018-03-22T02:30:06.557Z,1006.04
2018-03-22T02:31:16.358Z,1006.04
2018-03-22T02:32:26.203Z,1006.02
2018-03-22T02:33:35.472Z,1006
2018-03-22T02:34:45.322Z,1006
2018-03-22T02:35:55.407Z,1006
2018-03-22T02:37:04.399Z,1005.95
2018-03-22T02:38:14.475Z,1005.95
2018-03-22T02:39:24.529Z,1005.96
2018-03-22T02:40:34.391Z,1005.94
2018-03-22T02:41:43.920Z,1005.94
2018-03-22T02:42:53.973Z,1005.98
2018-03-22T02:44:04.217Z,1005.92
2018-03-22T02:45:14.209Z,1005.94
2018-03-22T02:46:23.750Z,1005.96
2018-03-22T02:47:33.809Z,1005.9
2018-03-22T02:48:43.970Z,1005.91
2018-03-22T02:49:54.031Z,1005.87
2018-03-22T02:51:03.853Z,1005.82
2018-03-22T02:52:13.897Z,1005.84
2018-03-22T02:53:23.991Z,1005.81
2018-03-22T02:54:33.792Z,1005.8
2018-03-22T02:55:43.604Z,1005.83
2018-03-22T02:56:53.402Z,1005.79
2018-03-22T02:58:03.275Z,1005.77
2018-03-22T02:59:13.350Z,1005.78
2018-03-22T03:00:23.141Z,1005.8
2018-03-22T03:01:33.029Z,1005.77
2018-03-22T03:02:42.593Z,1005.77
2018-03-22T03:03:52.191Z,1005.76
2018-03-22T03:05:02.000Z,1005.76
2018-03-22T03:06:11.825Z,1005.77
2018-03-22T03:07:21.345Z,1005.69
2018-03-22T03:39:11.081Z,1005.29
2018-03-22T03:40:21.134Z,1005.34
2018-03-22T03:41:31.231Z,1005.31
2018-03-22T03:42:41.032Z,1005.32
2018-03-22T03:43:50.561Z,1005.33
2018-03-22T03:45:00.606Z,1005.29
2018-03-22T03:46:10.136Z,1005.24
2018-03-22T03:47:20.203Z,1005.28
2018-03-22T03:48:29.474Z,1005.27
2018-03-22T03:49:39.527Z,1005.23
2018-03-22T03:50:49.427Z,1005.25
2018-03-22T03:51:59.483Z,1005.17
2018-03-22T03:53:09.283Z,1005.23
2018-03-22T03:54:19.345Z,1005.24
2018-03-22T03:55:29.397Z,1005.19
2018-03-22T03:56:38.977Z,1005.15
2018-03-22T03:57:49.025Z,1005.24
2018-03-22T03:58:58.821Z,1005.19
2018-03-22T04:00:08.873Z,1005.18
2018-03-22T04:01:18.412Z,1005.17
2018-03-22T04:02:28.220Z,1005.14
2018-03-22T04:03:38.303Z,1005.12
2018-03-22T04:04:48.090Z,1005.12
2018-03-22T04:05:57.881Z,1005.09
2018-03-22T04:07:07.664Z,1005.11
2018-03-22T04:08:17.777Z,1005.06
2018-03-22T04:09:27.584Z,1005.1
2018-03-22T04:10:37.643Z,1005.12
2018-03-22T04:11:46.634Z,1005.12
2018-03-22T04:12:56.692Z,1005.09
2018-03-22T04:14:06.789Z,1005
2018-03-22T04:15:16.826Z,1005.06
2018-03-22T04:16:26.622Z,1005.02
2018-03-22T04:17:36.428Z,1004.97
2018-03-22T04:18:46.236Z,1004.91
2018-03-22T04:19:56.078Z,1004.93
2018-03-22T04:21:05.880Z,1004.89
2018-03-22T04:22:15.682Z,1004.91
2018-03-22T04:23:25.727Z,1004.9
2018-03-22T04:24:35.528Z,1004.85
2018-03-22T04:25:45.581Z,1004.8
2018-03-22T04:26:55.632Z,1004.78
2018-03-22T04:28:05.722Z,1004.8
2018-03-22T04:29:15.533Z,1004.81
2018-03-22T04:30:25.306Z,1004.77
2018-03-22T04:31:34.901Z,1004.77
2018-03-22T04:32:44.954Z,1004.76
2018-03-22T04:33:54.757Z,1004.73
2018-03-22T04:35:04.808Z,1004.74
2018-03-22T04:36:14.857Z,1004.73
2018-03-22T04:37:24.976Z,1004.75
2018-03-22T04:38:34.779Z,1004.75
2018-03-22T04:39:44.572Z,1004.81
2018-03-22T04:40:54.102Z,1004.76
2018-03-22T04:42:03.629Z,1004.73
2018-03-22T04:43:13.695Z,1004.74
2018-03-22T04:44:23.764Z,1004.75
2018-03-22T04:45:33.299Z,1004.71
2018-03-22T04:46:43.372Z,1004.7
2018-03-22T04:47:53.426Z,1004.69
2018-03-22T04:49:02.946Z,1004.67
2018-03-22T04:50:12.483Z,1004.66
2018-03-22T04:51:22.261Z,1004.69
2018-03-22T04:52:32.040Z,1004.68
2018-03-22T04:53:41.847Z,1004.67
2018-03-22T04:54:51.945Z,1004.73
2018-03-22T04:56:02.030Z,1004.73
2018-03-22T04:57:11.826Z,1004.69
2018-03-22T04:58:21.349Z,1004.75
2018-03-22T04:59:31.213Z,1004.68
2018-03-22T05:00:40.794Z,1004.68
2018-03-22T05:01:50.582Z,1004.73
2018-03-22T05:03:00.644Z,1004.7
2018-03-22T05:04:10.693Z,1004.72
2018-03-22T05:05:20.738Z,1004.75
2018-03-22T05:06:30.828Z,1004.79
2018-03-22T05:07:41.118Z,1004.76
2018-03-22T05:08:51.181Z,1004.76
2018-03-22T05:10:00.969Z,1004.74
2018-03-22T05:11:11.021Z,1004.76
2018-03-22T05:12:21.082Z,1004.75
2018-03-22T05:13:31.155Z,1004.71
2018-03-22T05:14:41.226Z,1004.7
2018-03-22T05:15:51.025Z,1004.72
2018-03-22T05:17:01.115Z,1004.7
2018-03-22T05:18:11.254Z,1004.71
2018-03-22T05:19:21.313Z,1004.72
2018-03-22T05:20:31.091Z,1004.69
2018-03-22T05:21:40.874Z,1004.72
2018-03-22T05:22:50.658Z,1004.77
2018-03-22T05:24:00.710Z,1004.77
2018-03-22T05:25:10.495Z,1004.78
2018-03-22T05:26:20.283Z,1004.78
2018-03-22T05:27:30.330Z,1004.79
2018-03-22T05:28:40.384Z,1004.75
2018-03-22T05:29:50.501Z,1004.77
2018-03-22T05:31:00.555Z,1004.76
2018-03-22T05:32:10.616Z,1004.74
2018-03-22T05:33:20.694Z,1004.68
2018-03-22T05:34:30.484Z,1004.7
2018-03-22T05:35:40.549Z,1004.7
2018-03-22T05:36:50.343Z,1004.66
2018-03-22T05:38:00.132Z,1004.66
2018-03-22T05:39:10.192Z,1004.64
2018-03-22T05:40:20.045Z,1004.58
2018-03-22T05:41:29.865Z,1004.57
2018-03-22T05:42:39.916Z,1004.54
2018-03-22T05:43:49.714Z,1004.54
2018-03-22T05:44:59.775Z,1004.47
2018-03-22T05:46:09.552Z,1004.47
2018-03-22T05:47:19.080Z,1004.45
2018-03-22T05:48:28.869Z,1004.47
2018-03-22T05:49:38.673Z,1004.5
2018-03-22T05:50:48.466Z,1004.44
2018-03-22T05:51:58.270Z,1004.43
2018-03-22T05:53:08.068Z,1004.44
2018-03-22T05:54:18.133Z,1004.42
2018-03-22T05:55:27.397Z,1004.43
2018-03-22T05:56:36.933Z,1004.43
2018-03-22T05:57:46.988Z,1004.42
2018-03-22T05:58:56.564Z,1004.41
2018-03-22T06:00:06.347Z,1004.36
2018-03-22T06:01:16.401Z,1004.36
2018-03-22T06:02:26.478Z,1004.34
2018-03-22T06:03:36.285Z,1004.38
2018-03-22T06:04:46.384Z,1004.33
2018-03-22T06:05:56.454Z,1004.36
2018-03-22T06:07:06.256Z,1004.34
2018-03-22T06:08:16.324Z,1004.33
2018-03-22T06:09:25.850Z,1004.28
2018-03-22T06:10:35.955Z,1004.27
2018-03-22T06:11:45.758Z,1004.32
2018-03-22T06:12:55.817Z,1004.33
2018-03-22T06:14:05.864Z,1004.26
2018-03-22T06:15:15.396Z,1004.28
2018-03-22T06:16:24.917Z,1004.3
2018-03-22T06:17:34.773Z,1004.26
2018-03-22T06:18:44.585Z,1004.24
2018-03-22T06:19:54.654Z,1004.23
2018-03-22T06:21:04.477Z,1004.22
2018-03-22T06:22:14.533Z,1004.26
2018-03-22T06:23:24.582Z,1004.24
2018-03-22T06:24:34.384Z,1004.22
2018-03-22T06:25:43.957Z,1004.25
2018-03-22T06:26:53.731Z,1004.23
2018-03-22T06:28:03.858Z,1004.22
2018-03-22T06:29:13.405Z,1004.25
2018-03-22T06:30:22.943Z,1004.22
2018-03-22T06:31:32.475Z,1004.21
2018-03-22T06:32:42.262Z,1004.22
2018-03-22T06:33:52.428Z,1004.22
2018-03-22T06:35:02.216Z,1004.21
2018-03-22T06:36:12.303Z,1004.18
2018-03-22T06:37:22.100Z,1004.2
2018-03-22T06:38:31.906Z,1004.17
2018-03-22T06:39:41.227Z,1004.14
2018-03-22T06:40:51.030Z,1004.15
2018-03-22T06:42:01.101Z,1004.16
2018-03-22T06:43:10.363Z,1004.14
2018-03-22T06:44:20.439Z,1004.14
2018-03-22T06:45:30.231Z,1004.14
2018-03-22T06:46:40.027Z,1004.14
2018-03-22T06:47:50.090Z,1004.09
2018-03-22T06:49:00.141Z,1004.04
2018-03-22T06:50:09.941Z,1004.02
2018-03-22T06:51:19.777Z,1004
2018-03-22T06:52:29.846Z,1004.04
2018-03-22T06:53:39.129Z,1004.01
2018-03-22T06:54:48.958Z,1003.99
2018-03-22T06:56:01.328Z,1003.97
2018-03-22T06:57:19.292Z,1003.93
2018-03-22T06:58:29.106Z,1003.96
2018-03-22T06:59:38.907Z,1003.94
2018-03-22T07:00:48.704Z,1003.91
2018-03-22T07:01:58.227Z,1003.88
2018-03-22T07:03:07.805Z,1003.89
2018-03-22T07:04:17.868Z,1003.88
2018-03-22T07:05:27.663Z,1003.86
2018-03-22T07:06:37.454Z,1003.86
2018-03-22T07:07:47.239Z,1003.89
2018-03-22T07:08:57.089Z,1003.89
2018-03-22T07:10:06.910Z,1003.86
2018-03-22T07:11:16.989Z,1003.88
2018-03-22T07:12:27.051Z,1003.85
2018-03-22T07:13:36.837Z,1003.82
2018-03-22T07:14:46.897Z,1003.79
2018-03-22T07:15:56.186Z,1003.78
2018-03-22T07:17:05.984Z,1003.76
2018-03-22T07:18:16.051Z,1003.74
2018-03-22T07:19:25.846Z,1003.73
2018-03-22T07:20:35.914Z,1003.74
2018-03-22T07:21:45.467Z,1003.69
2018-03-22T07:22:55.020Z,1003.7
2018-03-22T07:24:04.873Z,1003.65
2018-03-22T07:25:14.414Z,1003.64
2018-03-22T07:26:24.564Z,1003.66
2018-03-22T07:27:34.097Z,1003.59
2018-03-22T07:28:44.159Z,1003.64
2018-03-22T07:29:54.238Z,1003.61
2018-03-22T07:31:04.060Z,1003.61
2018-03-22T07:32:13.341Z,1003.59
2018-03-22T07:33:23.139Z,1003.59
2018-03-22T07:34:32.956Z,1003.58
2018-03-22T07:35:42.517Z,1003.55
2018-03-22T07:36:52.599Z,1003.52
2018-03-22T07:38:02.740Z,1003.52
2018-03-22T07:39:12.806Z,1003.52
2018-03-22T07:40:22.587Z,1003.52
2018-03-22T07:41:32.636Z,1003.48
2018-03-22T07:42:42.701Z,1003.48
2018-03-22T07:43:52.534Z,1003.47
2018-03-22T07:45:02.108Z,1003.47
2018-03-22T07:46:11.948Z,1003.42
2018-03-22T07:47:21.772Z,1003.4
2018-03-22T07:48:31.572Z,1003.42
2018-03-22T07:49:41.681Z,1003.37
2018-03-22T07:50:51.755Z,1003.37
2018-03-22T07:52:01.811Z,1003.35
2018-03-22T07:53:11.879Z,1003.32
2018-03-22T07:54:21.691Z,1003.36
2018-03-22T07:55:31.266Z,1003.32
2018-03-22T07:56:40.817Z,1003.38
2018-03-22T07:57:50.892Z,1003.31
2018-03-22T07:59:01.034Z,1003.27
2018-03-22T08:00:10.767Z,1003.26
2018-03-22T08:02:45.533Z,1003.23
2018-03-22T08:03:55.584Z,1003.19
2018-03-22T08:05:05.110Z,1003.18
2018-03-22T08:06:14.932Z,1003.18
2018-03-22T08:07:24.795Z,1003.2
2018-03-22T08:08:34.599Z,1003.14
2018-03-22T08:09:44.652Z,1003.14
2018-03-22T08:10:54.466Z,1003.13
2018-03-22T08:12:04.537Z,1003.08
2018-03-22T08:13:14.390Z,1003.07
2018-03-22T08:14:24.441Z,1003.07
2018-03-22T08:15:34.503Z,1003.08
2018-03-22T08:16:43.773Z,1003.04
2018-03-22T08:17:53.577Z,1003.04
2018-03-22T08:19:03.630Z,1003.01
2018-03-22T08:20:13.429Z,1003.04
2018-03-22T08:21:23.226Z,1003.01
2018-03-22T08:22:33.292Z,1002.98
2018-03-22T08:23:43.365Z,1002.93
2018-03-22T08:24:53.176Z,1002.91
2018-03-22T08:26:03.237Z,1002.94
2018-03-22T08:27:13.055Z,1002.88
2018-03-22T08:28:23.122Z,1002.87
2018-03-22T08:29:32.668Z,1002.85
2018-03-22T08:30:42.522Z,1002.84
2018-03-22T08:31:52.586Z,1002.84
2018-03-22T08:33:02.437Z,1002.87
2018-03-22T08:34:12.510Z,1002.82
2018-03-22T08:35:22.322Z,1002.82
2018-03-22T08:36:32.383Z,1002.83
2018-03-22T08:37:41.922Z,1002.8
2018-03-22T08:38:52.008Z,1002.85
2018-03-22T08:40:02.090Z,1002.81
2018-03-22T08:41:12.167Z,1002.8
2018-03-22T08:42:22.512Z,1002.83
2018-03-22T08:43:32.575Z,1002.77
2018-03-22T08:44:42.396Z,1002.76
2018-03-22T08:45:52.188Z,1002.72
2018-03-22T08:47:01.985Z,1002.71
2018-03-22T08:48:11.775Z,1002.71
2018-03-22T08:49:22.068Z,1002.69
2018-03-22T08:50:31.591Z,1002.68
2018-03-22T08:51:41.387Z,1002.69
2018-03-22T08:52:51.185Z,1002.7
2018-03-22T08:54:00.724Z,1002.64
2018-03-22T08:55:10.802Z,1002.62
2018-03-22T08:56:20.910Z,1002.59
2018-03-22T08:57:30.974Z,1002.6
2018-03-22T08:58:41.063Z,1002.6
2018-03-22T08:59:51.140Z,1002.55
2018-03-22T09:01:01.206Z,1002.56
2018-03-22T09:02:10.738Z,1002.52
2018-03-22T09:03:20.818Z,1002.55
2018-03-22T09:04:30.879Z,1002.49
2018-03-22T09:05:40.945Z,1002.48
2018-03-22T09:06:50.738Z,1002.47
2018-03-22T09:08:00.810Z,1002.48
2018-03-22T09:09:11.102Z,1002.43
2018-03-22T09:10:20.915Z,1002.42
2018-03-22T09:11:30.967Z,1002.41
2018-03-22T09:12:41.044Z,1002.42
2018-03-22T09:13:51.110Z,1002.42
2018-03-22T09:15:00.124Z,1002.4
2018-03-22T09:16:09.922Z,1002.35
2018-03-22T09:17:19.993Z,1002.33
2018-03-22T09:18:29.787Z,1002.34
2018-03-22T09:19:39.597Z,1002.37
2018-03-22T09:20:49.451Z,1002.29
2018-03-22T09:21:58.996Z,1002.34
2018-03-22T09:23:09.053Z,1002.31
2018-03-22T09:24:19.118Z,1002.3
2018-03-22T09:25:29.179Z,1002.24
2018-03-22T09:26:39.245Z,1002.28
2018-03-22T09:27:49.370Z,1002.2
2018-03-22T09:28:59.194Z,1002.21
2018-03-22T09:30:09.246Z,1002.17
2018-03-22T09:31:19.046Z,1002.14
2018-03-22T09:32:28.837Z,1002.15
2018-03-22T09:33:38.948Z,1002.14
2018-03-22T09:34:49.090Z,1002.08
2018-03-22T09:35:58.967Z,1002.01
2018-03-22T09:37:08.499Z,1002.01
2018-03-22T09:38:18.583Z,1001.99
2018-03-22T09:39:28.625Z,1001.99
2018-03-22T09:40:38.437Z,1001.9
2018-03-22T09:41:48.514Z,1001.93
2018-03-22T09:42:58.663Z,1001.96
2018-03-22T09:44:08.468Z,1001.93
2018-03-22T09:45:18.278Z,1001.92
2018-03-22T09:46:28.348Z,1001.87
2018-03-22T09:47:38.166Z,1001.82
2018-03-22T09:48:48.240Z,1001.81
2018-03-22T09:49:57.505Z,1001.76
2018-03-22T09:51:07.317Z,1001.72
2018-03-22T09:52:17.386Z,1001.7
2018-03-22T09:53:27.444Z,1001.65
2018-03-22T09:54:37.497Z,1001.67
2018-03-22T09:55:46.828Z,1001.65
2018-03-22T09:56:56.367Z,1001.58
2018-03-22T09:58:06.388Z,1001.61
2018-03-22T09:59:16.440Z,1001.59
2018-03-22T10:00:26.512Z,1001.62
2018-03-22T10:01:36.580Z,1001.58
2018-03-22T10:02:46.394Z,1001.55
2018-03-22T10:03:56.565Z,1001.56
2018-03-22T10:05:06.103Z,1001.53
2018-03-22T10:06:16.165Z,1001.53
2018-03-22T10:07:26.010Z,1001.51
2018-03-22T10:08:35.812Z,1001.46
2018-03-22T10:09:45.603Z,1001.41
2018-03-22T10:10:55.396Z,1001.4
2018-03-22T10:12:05.504Z,1001.34
2018-03-22T10:13:15.621Z,1001.35
2018-03-22T10:14:25.704Z,1001.27
2018-03-22T10:15:35.793Z,1001.24
2018-03-22T10:16:45.630Z,1001.26
2018-03-22T10:17:55.444Z,1001.14
2018-03-22T10:19:06.313Z,1001.17
2018-03-22T10:20:16.118Z,1001.16
2018-03-22T10:21:25.929Z,1001.1
2018-03-22T10:22:35.999Z,1001.1
2018-03-22T10:23:45.801Z,1001.1
2018-03-22T10:24:55.859Z,1001.06
2018-03-22T10:26:05.925Z,1001.02
2018-03-22T10:27:15.999Z,1001
2018-03-22T10:28:26.080Z,1001
2018-03-22T10:29:35.896Z,1001
2018-03-22T10:30:45.761Z,1000.97
2018-03-22T10:31:55.836Z,1000.97
2018-03-22T10:33:05.396Z,1001
2018-03-22T10:34:15.466Z,1000.96
2018-03-22T10:35:25.524Z,1000.94
2018-03-22T10:36:35.602Z,1000.89
2018-03-22T10:37:45.665Z,1000.94
2018-03-22T10:38:55.475Z,1000.92
2018-03-22T10:40:05.556Z,1000.93
2018-03-22T10:41:14.822Z,1000.82
2018-03-22T10:42:24.874Z,1000.83
2018-03-22T10:43:34.961Z,1000.79
2018-03-22T10:44:44.767Z,1000.77
2018-03-22T10:45:54.844Z,1000.75
2018-03-22T10:47:03.907Z,1000.72
2018-03-22T10:48:13.716Z,1000.71
2018-03-22T10:49:23.262Z,1000.7
2018-03-22T10:50:33.323Z,1000.68
2018-03-22T10:51:42.884Z,1000.65
2018-03-22T10:52:53.012Z,1000.64
2018-03-22T10:54:02.835Z,1000.64
2018-03-22T10:55:12.913Z,1000.6
2018-03-22T10:56:22.770Z,1000.55
2018-03-22T10:57:32.837Z,1000.51
2018-03-22T10:58:42.431Z,1000.48
2018-03-22T10:59:52.495Z,1000.43
2018-03-22T11:01:02.296Z,1000.41
2018-03-22T11:02:12.362Z,1000.37
2018-03-22T11:03:22.436Z,1000.36
2018-03-22T11:04:32.227Z,1000.33
2018-03-22T11:05:41.770Z,1000.33
2018-03-22T11:06:51.567Z,1000.29
2018-03-22T11:08:01.642Z,1000.25
2018-03-22T11:09:11.709Z,1000.22
2018-03-22T11:10:21.796Z,1000.21
2018-03-22T11:11:31.852Z,1000.14
2018-03-22T11:12:41.663Z,1000.14
2018-03-22T11:13:51.803Z,1000.06
2018-03-22T11:15:01.613Z,1000.09
2018-03-22T11:16:11.424Z,1000.04
2018-03-22T11:17:20.962Z,1000.01
2018-03-22T11:18:31.017Z,1000
2018-03-22T11:19:40.811Z,999.98
2018-03-22T11:20:50.780Z,999.98
2018-03-22T11:22:00.597Z,999.98
2018-03-22T11:23:10.421Z,999.92
2018-03-22T11:24:20.491Z,999.94
2018-03-22T11:25:30.302Z,999.9
2018-03-22T11:26:40.113Z,999.89
2018-03-22T11:27:49.988Z,999.87
2018-03-22T11:28:59.534Z,999.84
2018-03-22T11:30:09.600Z,999.83
2018-03-22T11:31:19.132Z,999.83
2018-03-22T11:32:28.958Z,999.75
2018-03-22T11:33:39.043Z,999.78
2018-03-22T11:34:48.840Z,999.76
2018-03-22T11:35:58.914Z,999.7
2018-03-22T11:37:08.981Z,999.73
2018-03-22T11:38:19.038Z,999.71
2018-03-22T11:39:28.821Z,999.66
2018-03-22T11:40:38.893Z,999.64
2018-03-22T11:41:48.698Z,999.6
2018-03-22T11:42:58.754Z,999.58
2018-03-22T11:44:08.808Z,999.56
2018-03-22T11:45:18.965Z,999.54
2018-03-22T11:46:29.040Z,999.43
2018-03-22T11:47:38.841Z,999.42
2018-03-22T11:48:48.909Z,999.39
2018-03-22T11:49:58.996Z,999.39
2018-03-22T11:51:09.070Z,999.32
2018-03-22T11:52:19.135Z,999.28
2018-03-22T11:53:29.196Z,999.3
2018-03-22T11:54:39.279Z,999.29
2018-03-22T11:55:49.357Z,999.29
2018-03-22T11:56:59.483Z,999.29
2018-03-22T11:58:09.298Z,999.24
2018-03-22T11:59:19.348Z,999.2
2018-03-22T12:00:29.191Z,999.17
2018-03-22T12:01:39.264Z,999.16
2018-03-22T12:02:49.114Z,999.08
2018-03-22T12:03:58.652Z,999.13
2018-03-22T12:05:08.740Z,999.08
2018-03-22T12:06:18.813Z,999.08
2018-03-22T12:07:28.884Z,999.04
2018-03-22T12:08:38.687Z,999.06
2018-03-22T12:09:48.752Z,999
2018-03-22T12:10:58.811Z,999.03
2018-03-22T12:12:08.740Z,998.92
2018-03-22T12:13:18.830Z,998.95
2018-03-22T12:14:28.893Z,998.93
2018-03-22T12:15:38.962Z,998.91
2018-03-22T12:16:49.054Z,998.89
2018-03-22T12:17:58.856Z,998.85
2018-03-22T12:19:08.906Z,998.82
2018-03-22T12:20:19.027Z,998.81
2018-03-22T12:21:29.098Z,998.76
2018-03-22T12:22:39.306Z,998.7
2018-03-22T12:23:49.114Z,998.67
2018-03-22T12:24:58.943Z,998.61
2018-03-22T12:26:09.020Z,998.54
2018-03-22T12:27:19.107Z,998.55
2018-03-22T12:28:28.430Z,998.56
2018-03-22T12:29:38.236Z,998.5
2018-03-22T12:30:47.771Z,998.54
2018-03-22T12:31:57.356Z,998.5
2018-03-22T12:33:07.421Z,998.53
2018-03-22T12:34:17.233Z,998.55
2018-03-22T12:35:27.310Z,998.53
2018-03-22T12:36:37.373Z,998.46
2018-03-22T12:37:47.477Z,998.46
2018-03-22T12:38:57.547Z,998.4
2018-03-22T12:40:07.358Z,998.33
2018-03-22T12:41:17.442Z,998.32
2018-03-22T12:42:26.976Z,998.29
2018-03-22T12:43:36.557Z,998.31
2018-03-22T12:44:46.711Z,998.27
2018-03-22T12:45:56.585Z,998.28
2018-03-22T12:47:06.732Z,998.22
2018-03-22T12:48:16.529Z,998.22
2018-03-22T12:49:26.404Z,998.21
2018-03-22T12:50:35.928Z,998.2
2018-03-22T12:51:45.722Z,998.22
2018-03-22T12:52:55.794Z,998.17
2018-03-22T12:54:05.608Z,998.18
2018-03-22T12:55:15.480Z,998.1
2018-03-22T12:56:25.277Z,998.11
2018-03-22T12:57:35.358Z,998.07
2018-03-22T12:58:45.431Z,998.1
2018-03-22T12:59:55.518Z,998.12
2018-03-22T13:01:05.716Z,998.02
2018-03-22T13:02:15.790Z,998.03
2018-03-22T13:03:25.874Z,998.03
2018-03-22T13:04:35.966Z,998.04
2018-03-22T13:05:45.772Z,997.97
2018-03-22T13:06:55.381Z,997.94
2018-03-22T13:08:05.463Z,997.9
2018-03-22T13:09:15.269Z,997.94
2018-03-22T13:10:25.341Z,997.92
2018-03-22T13:11:35.159Z,997.9
2018-03-22T13:12:45.086Z,997.88
2018-03-22T13:13:54.902Z,997.91
2018-03-22T13:15:04.530Z,997.86
2018-03-22T13:16:14.360Z,997.89
2018-03-22T13:17:24.192Z,997.87
2018-03-22T13:18:34.306Z,997.8
2018-03-22T13:19:43.670Z,997.8
2018-03-22T13:20:53.204Z,997.75
2018-03-22T13:22:02.760Z,997.76
2018-03-22T13:23:12.821Z,997.75
2018-03-22T13:24:22.948Z,997.72
2018-03-22T13:25:32.825Z,997.68
2018-03-22T13:26:42.654Z,997.69
2018-03-22T13:27:52.707Z,997.61
2018-03-22T13:29:02.514Z,997.63
2018-03-22T13:30:12.632Z,997.63
2018-03-22T13:31:22.437Z,997.59
2018-03-22T13:32:32.506Z,997.54
2018-03-22T13:33:42.052Z,997.53
2018-03-22T13:34:52.138Z,997.5
2018-03-22T13:36:02.221Z,997.48
2018-03-22T13:37:11.762Z,997.44
2018-03-22T13:38:21.590Z,997.45
2018-03-22T13:39:31.400Z,997.42
2018-03-22T13:40:41.206Z,997.41
2018-03-22T13:41:51.075Z,997.37
2018-03-22T13:43:01.155Z,997.4
2018-03-22T13:44:10.694Z,997.37
2018-03-22T13:45:20.756Z,997.38
2018-03-22T13:46:30.554Z,997.35
2018-03-22T13:47:40.632Z,997.31
2018-03-22T13:48:50.445Z,997.31
2018-03-22T13:50:00.524Z,997.26
2018-03-22T13:51:10.665Z,997.18
2018-03-22T13:52:20.195Z,997.14
2018-03-22T13:53:30.316Z,997.14
2018-03-22T13:54:40.388Z,997.11
2018-03-22T13:55:50.451Z,997.11
2018-03-22T13:56:59.736Z,997.11
2018-03-22T13:58:09.534Z,997.09
2018-03-22T13:59:19.378Z,997.06
2018-03-22T14:00:29.469Z,997.06
2018-03-22T14:01:39.240Z,997.03
2018-03-22T14:02:49.282Z,996.96
2018-03-22T14:03:59.097Z,996.93
2018-03-22T14:05:09.181Z,996.83
2018-03-22T14:06:19.240Z,996.79
2018-03-22T14:07:29.327Z,996.81
2018-03-22T14:08:39.401Z,996.78
2018-03-22T14:09:49.206Z,996.77
2018-03-22T14:10:59.010Z,996.79
2018-03-22T14:12:09.091Z,996.74
2018-03-22T14:13:19.181Z,996.73
2018-03-22T14:14:28.994Z,996.7
2018-03-22T14:15:39.074Z,996.66
2018-03-22T14:16:49.145Z,996.63
2018-03-22T14:17:59.259Z,996.65
2018-03-22T14:19:09.328Z,996.63
2018-03-22T14:20:19.414Z,996.58
2018-03-22T14:21:29.222Z,996.56
2018-03-22T14:22:39.358Z,996.54
2018-03-22T14:23:49.451Z,996.49
2018-03-22T14:24:59.268Z,996.48
2018-03-22T14:26:09.336Z,996.48
2018-03-22T14:27:19.420Z,996.43
2018-03-22T14:28:29.538Z,996.38
2018-03-22T14:29:39.352Z,996.33
2018-03-22T14:30:49.466Z,996.31
2018-03-22T14:31:59.324Z,996.32
2018-03-22T14:33:09.145Z,996.28
2018-03-22T14:34:18.749Z,996.25
2018-03-22T14:35:28.819Z,996.3
2018-03-22T14:36:38.930Z,996.28
2018-03-22T14:37:49.027Z,996.26
2018-03-22T14:38:59.124Z,996.25
2018-03-22T14:40:09.218Z,996.28
2018-03-22T14:41:19.068Z,996.25
2018-03-22T14:42:29.171Z,996.21
2018-03-22T14:43:39.248Z,996.18
2018-03-22T14:44:49.318Z,996.11
2018-03-22T14:45:59.383Z,996.13
2018-03-22T14:47:09.246Z,996.1
2018-03-22T14:48:19.058Z,996.09